createdAt,value
2019-03-30T00:00:06.352Z,5.30
2019-03-30T00:02:36.803Z,5.20
2019-03-30T00:05:07.754Z,5.20
2019-03-30T00:07:38.292Z,5.20
2019-03-30T00:10:08.691Z,5.20
2019-03-30T00:12:39.083Z,5.10
2019-03-30T00:15:09.654Z,5.10
2019-03-30T00:17:40.021Z,5.00
2019-03-30T00:20:10.609Z,5.10
2019-03-30T00:22:40.963Z,5.10
2019-03-30T00:25:11.575Z,5.00
2019-03-30T00:27:41.986Z,5.00
2019-03-30T00:30:12.527Z,4.90
2019-03-30T00:32:42.965Z,4.90
2019-03-30T00:35:13.426Z,5.00
2019-03-30T00:37:43.802Z,5.00
2019-03-30T00:40:14.255Z,4.90
2019-03-30T00:42:44.777Z,5.00
2019-03-30T00:45:15.345Z,5.00
2019-03-30T00:47:45.678Z,5.00
2019-03-30T00:50:16.079Z,5.00
2019-03-30T00:52:46.457Z,5.00
2019-03-30T00:55:16.834Z,5.00
2019-03-30T00:57:47.295Z,4.90
2019-03-30T01:00:17.919Z,4.80
2019-03-30T01:02:48.359Z,4.70
2019-03-30T01:05:19.205Z,4.60
2019-03-30T01:07:49.688Z,4.50
2019-03-30T01:10:20.229Z,4.50
2019-03-30T01:12:50.660Z,4.40
2019-03-30T01:15:21.129Z,4.30
2019-03-30T01:17:51.539Z,4.40
2019-03-30T01:20:21.985Z,4.20
2019-03-30T01:22:52.525Z,4.20
2019-03-30T01:25:23.373Z,4.10
2019-03-30T01:27:55.584Z,4.00
2019-03-30T01:30:26.049Z,4.00
2019-03-30T01:32:56.546Z,4.00
2019-03-30T01:35:27.040Z,4.00
2019-03-30T01:37:57.590Z,4.10
2019-03-30T01:40:28.002Z,4.00
2019-03-30T01:42:58.447Z,3.80
2019-03-30T01:45:28.821Z,3.80
2019-03-30T01:48:00.911Z,3.70
2019-03-30T01:50:31.348Z,3.70
2019-03-30T01:53:01.744Z,3.70
2019-03-30T01:55:32.248Z,3.60
2019-03-30T01:58:02.636Z,3.60
2019-03-30T02:00:35.334Z,3.60
2019-03-30T02:03:05.748Z,3.60
2019-03-30T02:05:36.287Z,3.40
2019-03-30T02:08:06.683Z,3.40
2019-03-30T02:10:45.412Z,3.40
2019-03-30T02:13:15.800Z,3.30
2019-03-30T02:15:46.420Z,3.30
2019-03-30T02:18:16.884Z,3.30
2019-03-30T02:20:48.650Z,3.30
2019-03-30T02:23:19.015Z,3.40
2019-03-30T02:25:49.453Z,3.30
2019-03-30T02:28:19.870Z,3.30
2019-03-30T02:30:50.285Z,3.40
2019-03-30T02:33:20.679Z,3.40
2019-03-30T02:35:51.087Z,3.40
2019-03-30T02:38:21.481Z,3.40
2019-03-30T02:40:51.821Z,3.40
2019-03-30T02:43:22.291Z,3.40
2019-03-30T02:45:52.724Z,3.30
2019-03-30T02:48:23.082Z,3.40
2019-03-30T02:50:53.460Z,3.30
2019-03-30T02:53:23.901Z,3.30
2019-03-30T02:55:54.281Z,3.20
2019-03-30T02:58:24.707Z,3.30
2019-03-30T03:00:55.058Z,3.30
2019-03-30T03:03:25.484Z,3.20
2019-03-30T03:05:55.894Z,3.30
2019-03-30T03:08:26.273Z,3.30
2019-03-30T03:10:56.741Z,3.20
2019-03-30T03:13:27.201Z,3.20
2019-03-30T03:15:57.693Z,3.10
2019-03-30T03:18:28.233Z,3.00
2019-03-30T03:21:07.264Z,3.00
2019-03-30T03:23:30.652Z,3.00
2019-03-30T03:26:01.119Z,3.00
2019-03-30T03:28:31.504Z,3.00
2019-03-30T03:31:01.907Z,3.00
2019-03-30T03:33:32.301Z,2.90
2019-03-30T03:36:02.743Z,2.90
2019-03-30T03:38:33.169Z,2.90
2019-03-30T03:41:03.550Z,3.00
2019-03-30T03:43:33.969Z,3.20
2019-03-30T03:46:04.571Z,3.50
2019-03-30T03:48:34.981Z,3.90
2019-03-30T03:51:24.542Z,4.30
2019-03-30T03:53:38.566Z,4.90
2019-03-30T03:56:10.572Z,5.20
2019-03-30T03:58:41.849Z,5.20
2019-03-30T04:01:14.772Z,6.00
2019-03-30T04:03:48.005Z,6.60
2019-03-30T04:06:20.105Z,7.40
2019-03-30T04:08:53.461Z,7.30
2019-03-30T04:11:24.358Z,6.70
2019-03-30T04:13:57.033Z,6.80
2019-03-30T04:16:27.600Z,7.30
2019-03-30T04:18:58.051Z,7.60
2019-03-30T04:21:42.925Z,8.30
2019-03-30T04:24:00.523Z,9.00
2019-03-30T04:26:30.928Z,9.00
2019-03-30T04:29:01.345Z,9.30
2019-03-30T04:31:31.777Z,9.40
2019-03-30T04:34:02.170Z,9.40
2019-03-30T04:36:32.688Z,9.20
2019-03-30T04:39:04.860Z,9.40
2019-03-30T04:41:35.342Z,10.00
2019-03-30T04:44:05.798Z,10.10
2019-03-30T04:46:36.217Z,10.60
2019-03-30T04:49:06.701Z,10.40
2019-03-30T04:51:37.120Z,10.30
2019-03-30T04:54:07.581Z,10.40
2019-03-30T04:56:37.980Z,10.60
2019-03-30T04:59:08.509Z,11.00
2019-03-30T05:01:38.870Z,10.80
2019-03-30T05:04:09.307Z,10.70
2019-03-30T05:06:39.728Z,10.50
2019-03-30T05:09:10.219Z,10.80
2019-03-30T05:11:45.013Z,11.20
2019-03-30T05:14:15.478Z,10.80
2019-03-30T05:16:46.040Z,11.10
2019-03-30T05:19:16.503Z,11.50
2019-03-30T05:21:46.949Z,11.70
2019-03-30T05:24:17.392Z,11.90
2019-03-30T05:26:47.783Z,12.20
2019-03-30T05:29:18.222Z,12.80
2019-03-30T05:31:51.720Z,12.70
2019-03-30T05:34:22.207Z,13.00
2019-03-30T05:36:55.622Z,12.80
2019-03-30T05:39:27.628Z,12.60
2019-03-30T05:41:58.187Z,12.50
2019-03-30T05:44:28.767Z,12.30
2019-03-30T05:47:00.350Z,12.50
2019-03-30T05:49:30.914Z,13.10
2019-03-30T05:52:01.580Z,12.90
2019-03-30T05:54:34.009Z,13.00
2019-03-30T05:57:04.149Z,13.50
2019-03-30T05:59:34.608Z,13.70
2019-03-30T06:02:05.039Z,13.50
2019-03-30T06:04:37.334Z,13.40
2019-03-30T06:07:14.090Z,13.00
2019-03-30T06:09:43.882Z,13.40
2019-03-30T06:12:15.673Z,13.40
2019-03-30T06:14:46.278Z,12.80
2019-03-30T06:17:16.935Z,12.30
2019-03-30T06:19:48.101Z,11.80
2019-03-30T06:22:18.492Z,11.10
2019-03-30T06:24:49.031Z,10.40
2019-03-30T06:27:19.468Z,10.20
2019-03-30T06:30:16.737Z,9.90
2019-03-30T06:32:47.196Z,9.90
2019-03-30T06:35:17.662Z,9.90
2019-03-30T06:37:48.150Z,9.90
2019-03-30T06:40:18.566Z,9.70
2019-03-30T06:42:49.018Z,9.80
2019-03-30T06:45:19.450Z,9.80
2019-03-30T06:47:51.220Z,9.90
2019-03-30T06:50:21.585Z,9.90
2019-03-30T06:52:57.955Z,9.90
2019-03-30T06:55:24.056Z,9.80
2019-03-30T06:57:54.479Z,9.90
2019-03-30T07:00:32.796Z,10.40
2019-03-30T07:03:05.492Z,10.40
2019-03-30T07:05:41.658Z,10.60
2019-03-30T07:08:16.469Z,10.80
2019-03-30T07:10:47.065Z,11.00
2019-03-30T07:13:17.749Z,11.00
2019-03-30T07:15:50.270Z,11.00
2019-03-30T07:18:20.977Z,11.30
2019-03-30T07:20:51.434Z,11.40
2019-03-30T07:23:21.964Z,11.20
2019-03-30T07:25:52.407Z,11.20
2019-03-30T07:28:23.036Z,11.10
2019-03-30T07:30:54.148Z,11.20
2019-03-30T07:33:24.905Z,11.20
2019-03-30T07:35:55.438Z,11.50
2019-03-30T07:38:25.970Z,11.60
2019-03-30T07:41:00.793Z,11.80
2019-03-30T07:43:31.325Z,11.90
2019-03-30T07:46:02.812Z,11.60
2019-03-30T07:48:33.560Z,11.50
2019-03-30T07:51:08.057Z,11.60
2019-03-30T07:53:44.738Z,11.80
2019-03-30T07:56:13.021Z,11.50
2019-03-30T07:58:44.736Z,11.30
2019-03-30T08:01:16.784Z,11.20
2019-03-30T08:03:47.546Z,11.40
2019-03-30T08:06:23.908Z,11.50
2019-03-30T08:08:54.627Z,11.60
2019-03-30T08:11:25.133Z,11.10
2019-03-30T08:13:55.811Z,11.10
2019-03-30T08:16:26.553Z,11.40
2019-03-30T08:18:57.270Z,11.70
2019-03-30T08:21:28.064Z,12.00
2019-03-30T08:24:00.363Z,11.40
2019-03-30T08:26:30.850Z,11.70
2019-03-30T08:29:01.592Z,12.10
2019-03-30T08:31:31.997Z,12.20
2019-03-30T08:34:03.923Z,12.10
2019-03-30T08:36:37.558Z,11.90
2019-03-30T08:39:08.545Z,11.60
2019-03-30T08:41:41.067Z,11.70
2019-03-30T08:44:11.490Z,11.70
2019-03-30T08:46:43.116Z,11.60
2019-03-30T08:49:13.621Z,11.50
2019-03-30T08:51:44.032Z,11.70
2019-03-30T08:54:16.083Z,11.70
2019-03-30T08:56:46.602Z,11.90
2019-03-30T08:59:17.226Z,12.30
2019-03-30T09:01:53.729Z,12.40
2019-03-30T09:04:24.309Z,12.50
2019-03-30T09:06:54.716Z,12.80
2019-03-30T09:09:26.768Z,13.00
2019-03-30T09:11:57.228Z,13.30
2019-03-30T09:14:27.700Z,13.30
2019-03-30T09:16:58.160Z,13.40
2019-03-30T09:19:28.766Z,13.40
2019-03-30T09:22:10.071Z,13.40
2019-03-30T09:24:40.791Z,13.40
2019-03-30T09:27:11.427Z,13.70
2019-03-30T09:29:42.050Z,13.40
2019-03-30T09:32:14.678Z,13.70
2019-03-30T09:34:44.784Z,13.70
2019-03-30T09:37:17.826Z,13.90
2019-03-30T09:39:49.847Z,13.80
2019-03-30T09:42:20.251Z,14.10
2019-03-30T09:44:52.614Z,14.30
2019-03-30T09:47:23.137Z,13.80
2019-03-30T09:49:53.844Z,13.40
2019-03-30T09:52:24.341Z,13.60
2019-03-30T09:54:54.761Z,13.30
2019-03-30T09:57:25.208Z,13.30
2019-03-30T09:59:55.703Z,13.40
2019-03-30T10:02:26.047Z,13.50
2019-03-30T10:04:56.534Z,13.30
2019-03-30T10:07:26.973Z,13.20
2019-03-30T10:09:57.487Z,12.90
2019-03-30T10:12:28.001Z,12.90
2019-03-30T10:14:58.579Z,13.20
2019-03-30T10:17:29.002Z,13.10
2019-03-30T10:20:04.516Z,13.60
2019-03-30T10:22:31.842Z,13.40
2019-03-30T10:25:02.306Z,13.50
2019-03-30T10:27:32.701Z,13.50
2019-03-30T10:30:03.184Z,13.10
2019-03-30T10:32:33.669Z,12.90
2019-03-30T10:35:05.301Z,12.90
2019-03-30T10:37:35.709Z,12.70
2019-03-30T10:40:08.221Z,12.60
2019-03-30T10:42:38.563Z,12.50
2019-03-30T10:45:09.280Z,12.40
2019-03-30T10:47:39.678Z,12.60
2019-03-30T10:50:11.124Z,12.80
2019-03-30T10:52:45.072Z,13.00
2019-03-30T10:55:17.891Z,13.10
2019-03-30T10:57:52.234Z,13.40
2019-03-30T11:00:38.170Z,13.30
2019-03-30T11:03:08.636Z,13.40
2019-03-30T11:05:39.027Z,13.40
2019-03-30T11:08:09.541Z,13.40
2019-03-30T11:10:39.897Z,13.10
2019-03-30T11:13:11.831Z,13.00
2019-03-30T11:15:42.326Z,13.20
2019-03-30T11:18:13.070Z,13.20
2019-03-30T11:20:43.578Z,13.40
2019-03-30T11:23:14.293Z,13.40
2019-03-30T11:25:44.836Z,13.60
2019-03-30T11:28:15.288Z,13.60
2019-03-30T11:30:45.689Z,13.70
2019-03-30T11:33:16.028Z,13.70
2019-03-30T11:35:46.524Z,13.50
2019-03-30T11:38:16.938Z,13.40
2019-03-30T11:40:48.253Z,13.40
2019-03-30T11:43:33.214Z,13.50
2019-03-30T11:45:56.265Z,13.50
2019-03-30T11:48:26.642Z,13.70
2019-03-30T11:50:57.047Z,14.10
2019-03-30T11:53:27.441Z,14.10
2019-03-30T11:55:57.884Z,14.10
2019-03-30T11:58:28.328Z,14.00
2019-03-30T12:00:58.824Z,13.90
2019-03-30T12:03:29.268Z,14.20
2019-03-30T12:05:59.774Z,14.20
2019-03-30T12:08:30.184Z,13.80
2019-03-30T12:11:00.664Z,14.00
2019-03-30T12:13:31.189Z,13.90
2019-03-30T12:16:01.594Z,14.20
2019-03-30T12:18:32.122Z,14.30
2019-03-30T12:21:04.779Z,14.20
2019-03-30T12:23:35.173Z,14.10
2019-03-30T12:26:05.597Z,14.30
2019-03-30T12:28:35.975Z,14.30
2019-03-30T12:31:06.568Z,14.10
2019-03-30T12:33:36.963Z,13.90
2019-03-30T12:36:07.372Z,13.90
2019-03-30T12:38:37.803Z,13.90
2019-03-30T12:41:08.323Z,14.10
2019-03-30T12:43:39.217Z,14.00
2019-03-30T12:46:10.053Z,13.90
2019-03-30T12:48:40.485Z,13.60
2019-03-30T12:51:10.944Z,13.50
2019-03-30T12:53:49.934Z,13.30
2019-03-30T12:56:13.529Z,13.20
2019-03-30T12:58:43.916Z,13.20
2019-03-30T13:01:15.720Z,13.20
2019-03-30T13:03:46.501Z,13.10
2019-03-30T13:06:17.935Z,13.20
2019-03-30T13:08:48.377Z,13.30
2019-03-30T13:11:18.839Z,13.30
2019-03-30T13:13:49.211Z,13.50
2019-03-30T13:16:19.691Z,13.60
2019-03-30T13:18:50.091Z,13.50
2019-03-30T13:21:20.606Z,13.50
2019-03-30T13:23:51.014Z,13.50
2019-03-30T13:26:22.406Z,13.50
2019-03-30T13:28:52.784Z,13.50
2019-03-30T13:31:23.256Z,13.60
2019-03-30T13:33:53.661Z,13.60
2019-03-30T13:36:34.574Z,13.60
2019-03-30T13:39:06.668Z,13.70
2019-03-30T13:41:37.241Z,13.80
2019-03-30T13:44:07.764Z,13.90
2019-03-30T13:46:42.815Z,13.90
2019-03-30T13:49:13.244Z,13.80
2019-03-30T13:51:43.732Z,13.90
2019-03-30T13:54:15.829Z,13.80
2019-03-30T13:56:46.350Z,13.60
2019-03-30T13:59:16.749Z,13.50
2019-03-30T14:01:47.218Z,13.50
2019-03-30T14:04:17.631Z,13.60
2019-03-30T14:06:48.108Z,13.60
2019-03-30T14:09:18.534Z,13.40
2019-03-30T14:11:49.100Z,13.40
2019-03-30T14:14:21.370Z,13.40
2019-03-30T14:16:53.045Z,13.40
2019-03-30T14:19:23.459Z,13.30
2019-03-30T14:21:53.989Z,13.40
2019-03-30T14:24:24.417Z,13.30
2019-03-30T14:26:54.835Z,13.20
2019-03-30T14:29:25.243Z,13.20
2019-03-30T14:31:55.653Z,13.20
2019-03-30T14:34:26.117Z,13.20
2019-03-30T14:36:56.561Z,13.20
2019-03-30T14:39:27.000Z,13.10
2019-03-30T14:41:57.414Z,13.10
2019-03-30T14:44:27.881Z,13.20
2019-03-30T14:46:58.415Z,13.20
2019-03-30T14:49:28.834Z,13.20
2019-03-30T14:51:59.247Z,13.20
2019-03-30T14:54:30.832Z,13.20
2019-03-30T14:57:01.256Z,13.20
2019-03-30T14:59:31.635Z,13.20
2019-03-30T15:02:02.143Z,13.10
2019-03-30T15:04:32.704Z,13.10
2019-03-30T15:07:03.099Z,13.00
2019-03-30T15:09:33.521Z,12.90
2019-03-30T15:12:06.852Z,12.70
2019-03-30T15:14:37.298Z,12.70
2019-03-30T15:17:07.827Z,12.60
2019-03-30T15:19:38.250Z,12.50
2019-03-30T15:22:08.708Z,12.50
2019-03-30T15:24:39.284Z,12.50
2019-03-30T15:27:09.724Z,12.40
2019-03-30T15:29:40.114Z,12.40
2019-03-30T15:32:10.550Z,12.40
2019-03-30T15:34:40.899Z,12.30
2019-03-30T15:37:11.321Z,12.20
2019-03-30T15:39:41.746Z,12.20
2019-03-30T15:42:12.165Z,12.20
2019-03-30T15:44:42.550Z,12.20
2019-03-30T15:47:13.086Z,12.00
2019-03-30T15:49:43.509Z,12.00
2019-03-30T15:52:14.487Z,11.90
2019-03-30T15:54:45.170Z,11.80
2019-03-30T15:57:15.652Z,11.80
2019-03-30T15:59:46.075Z,11.60
2019-03-30T16:02:16.503Z,11.60
2019-03-30T16:04:46.894Z,11.60
2019-03-30T16:07:17.334Z,11.50
2019-03-30T16:09:47.809Z,11.40
2019-03-30T16:12:19.836Z,11.30
2019-03-30T16:14:50.293Z,11.30
2019-03-30T16:17:20.666Z,11.20
2019-03-30T16:19:51.050Z,11.10
2019-03-30T16:22:21.682Z,11.00
2019-03-30T16:24:52.087Z,10.90
2019-03-30T16:27:28.882Z,10.80
2019-03-30T16:29:54.574Z,10.80
2019-03-30T16:32:25.132Z,10.80
2019-03-30T16:34:58.678Z,10.70
2019-03-30T16:37:30.224Z,10.70
2019-03-30T16:40:05.609Z,10.60
2019-03-30T16:42:36.941Z,10.50
2019-03-30T16:45:10.762Z,10.40
2019-03-30T16:47:42.790Z,10.30
2019-03-30T16:50:16.043Z,10.20
2019-03-30T16:52:46.443Z,10.20
2019-03-30T16:55:21.230Z,10.30
2019-03-30T16:57:51.683Z,10.40
2019-03-30T17:00:23.378Z,10.50
2019-03-30T17:02:53.818Z,10.50
2019-03-30T17:05:24.409Z,10.60
2019-03-30T17:07:54.829Z,10.50
2019-03-30T17:10:25.292Z,10.40
2019-03-30T17:12:55.731Z,10.20
2019-03-30T17:15:26.238Z,10.10
2019-03-30T17:18:00.462Z,10.00
2019-03-30T17:20:31.718Z,9.90
2019-03-30T17:23:02.348Z,9.80
2019-03-30T17:25:32.970Z,9.80
2019-03-30T17:28:06.777Z,9.80
2019-03-30T17:30:38.450Z,9.80
2019-03-30T17:33:09.701Z,9.70
2019-03-30T17:35:40.979Z,9.70
2019-03-30T17:38:15.035Z,9.70
2019-03-30T17:40:47.463Z,9.60
2019-03-30T17:43:20.504Z,9.60
2019-03-30T17:45:53.737Z,9.50
2019-03-30T17:48:24.532Z,9.40
2019-03-30T17:50:58.182Z,9.30
2019-03-30T17:53:29.374Z,9.30
2019-03-30T17:56:02.862Z,9.20
2019-03-30T17:58:36.603Z,9.10
2019-03-30T18:01:07.450Z,9.00
2019-03-30T18:03:37.942Z,9.10
2019-03-30T18:06:08.511Z,9.00
2019-03-30T18:08:41.135Z,9.00
2019-03-30T18:11:12.937Z,9.00
2019-03-30T18:13:43.935Z,9.00
2019-03-30T18:16:22.387Z,8.90
2019-03-30T18:18:51.671Z,9.00
2019-03-30T18:21:25.373Z,8.90
2019-03-30T18:23:59.058Z,8.90
2019-03-30T18:26:29.835Z,8.80
2019-03-30T18:29:01.250Z,8.80
2019-03-30T18:31:32.740Z,8.80
2019-03-30T18:34:04.954Z,8.70
2019-03-30T18:36:38.020Z,8.70
2019-03-30T18:39:10.377Z,8.60
2019-03-30T18:41:42.437Z,8.50
2019-03-30T18:44:14.314Z,8.50
2019-03-30T18:46:45.994Z,8.60
2019-03-30T18:49:19.000Z,8.60
2019-03-30T18:51:53.724Z,8.50
2019-03-30T18:54:32.368Z,8.50
2019-03-30T18:57:04.423Z,8.50
2019-03-30T18:59:36.818Z,8.40
2019-03-30T19:02:09.095Z,8.30
2019-03-30T19:04:40.838Z,8.30
2019-03-30T19:07:12.596Z,8.20
2019-03-30T19:09:47.008Z,8.20
2019-03-30T19:12:18.527Z,8.10
2019-03-30T19:14:50.357Z,8.10
2019-03-30T19:17:22.229Z,8.10
2019-03-30T19:19:54.537Z,8.10
2019-03-30T19:22:26.541Z,8.00
2019-03-30T19:24:58.918Z,7.90
2019-03-30T19:27:30.894Z,7.90
2019-03-30T19:30:05.609Z,7.80
2019-03-30T19:32:37.772Z,7.80
2019-03-30T19:35:10.237Z,7.80
2019-03-30T19:37:43.905Z,7.70
2019-03-30T19:40:16.145Z,7.60
2019-03-30T19:42:48.138Z,7.50
2019-03-30T19:45:20.352Z,7.30
2019-03-30T19:47:52.438Z,7.30
2019-03-30T19:50:25.265Z,7.20
2019-03-30T19:52:57.358Z,7.20
2019-03-30T19:55:29.506Z,7.10
2019-03-30T19:58:03.427Z,7.10
2019-03-30T20:00:38.586Z,7.10
2019-03-30T20:03:09.192Z,7.20
2019-03-30T20:05:44.491Z,7.10
2019-03-30T20:08:14.879Z,7.10
2019-03-30T20:10:47.414Z,7.10
2019-03-30T20:13:19.150Z,7.10
2019-03-30T20:15:51.112Z,7.10
2019-03-30T20:18:22.788Z,7.00
2019-03-30T20:20:55.559Z,6.90
2019-03-30T20:23:27.452Z,7.00
2019-03-30T20:25:58.292Z,6.90
2019-03-30T20:28:28.778Z,6.90
2019-03-30T20:30:59.246Z,6.90
2019-03-30T20:33:29.669Z,7.00
2019-03-30T20:36:00.091Z,6.90
2019-03-30T20:38:30.748Z,7.00
2019-03-30T20:41:01.206Z,7.00
2019-03-30T20:43:31.614Z,6.90
2019-03-30T20:46:02.062Z,6.80
2019-03-30T20:48:38.544Z,6.80
2019-03-30T20:51:08.966Z,6.70
2019-03-30T20:53:39.501Z,6.60
2019-03-30T20:56:11.367Z,6.60
2019-03-30T20:58:41.847Z,6.50
2019-03-30T21:01:12.227Z,6.40
2019-03-30T21:03:42.599Z,6.30
2019-03-30T21:06:14.122Z,6.30
2019-03-30T21:08:44.533Z,6.30
2019-03-30T21:11:14.947Z,6.20
2019-03-30T21:13:45.446Z,6.20
2019-03-30T21:16:16.000Z,6.20
2019-03-30T21:18:46.433Z,6.30
2019-03-30T21:21:16.840Z,6.20
2019-03-30T21:23:47.178Z,6.10
2019-03-30T21:26:17.810Z,6.10
2019-03-30T21:28:48.237Z,6.10
2019-03-30T21:31:18.810Z,6.10
2019-03-30T21:33:50.728Z,6.00
2019-03-30T21:36:21.221Z,5.90
2019-03-30T21:38:53.941Z,5.80
2019-03-30T21:41:24.427Z,5.70
2019-03-30T21:43:54.831Z,5.60
2019-03-30T21:46:25.289Z,5.50
2019-03-30T21:48:55.700Z,5.40
2019-03-30T21:51:26.180Z,5.30
2019-03-30T21:53:56.622Z,5.30
2019-03-30T21:56:27.065Z,5.30
2019-03-30T21:58:57.493Z,5.30
2019-03-30T22:01:28.048Z,5.30
2019-03-30T22:03:58.457Z,5.40
2019-03-30T22:06:28.868Z,5.50
2019-03-30T22:08:59.785Z,5.40
2019-03-30T22:11:30.182Z,5.40
2019-03-30T22:14:00.623Z,5.30
2019-03-30T22:16:31.030Z,5.20
2019-03-30T22:19:01.542Z,5.20
2019-03-30T22:21:31.878Z,5.10
2019-03-30T22:24:02.309Z,5.00
2019-03-30T22:26:32.879Z,5.00
2019-03-30T22:29:03.219Z,4.90
2019-03-30T22:31:33.628Z,4.90
2019-03-30T22:34:04.049Z,4.90
2019-03-30T22:36:34.495Z,4.90
2019-03-30T22:39:06.621Z,4.80
2019-03-30T22:41:39.103Z,4.90
2019-03-30T22:44:09.622Z,4.80
2019-03-30T22:46:40.031Z,4.80
2019-03-30T22:49:10.494Z,4.70
2019-03-30T22:51:40.958Z,4.70
2019-03-30T22:54:11.419Z,4.60
2019-03-30T22:56:41.850Z,4.50
2019-03-30T22:59:12.271Z,4.50
2019-03-30T23:01:42.795Z,4.40
2019-03-30T23:04:13.279Z,4.40
2019-03-30T23:06:43.715Z,4.40
2019-03-30T23:09:17.042Z,4.20
2019-03-30T23:11:47.490Z,4.10
2019-03-30T23:14:18.007Z,4.10
2019-03-30T23:16:48.421Z,4.50
2019-03-30T23:19:20.425Z,4.80
2019-03-30T23:21:50.916Z,5.10
2019-03-30T23:24:21.558Z,5.00
2019-03-30T23:26:52.118Z,4.80
2019-03-30T23:29:25.224Z,4.60
2019-03-30T23:31:57.856Z,4.30
2019-03-30T23:34:28.702Z,4.20
2019-03-30T23:36:59.189Z,4.00
2019-03-30T23:39:32.823Z,3.90
2019-03-30T23:42:04.860Z,3.80
2019-03-30T23:44:35.310Z,3.70
2019-03-30T23:47:05.712Z,3.60
2019-03-30T23:49:36.183Z,3.60
2019-03-30T23:52:06.708Z,3.50
2019-03-30T23:54:37.097Z,3.60
2019-03-30T23:57:07.695Z,3.60
2019-03-30T23:59:39.221Z,3.50
